sensor_id;sensor_type;location;lat;lon;timestamp;temperature;humidity
5940;DHT22;2995;-31.998;115.906;2023-08-06T00:00:41;6.70;99.90
5940;DHT22;2995;-31.998;115.906;2023-08-06T00:03:15;6.70;99.90
5940;DHT22;2995;-31.998;115.906;2023-08-06T00:05:46;6.70;99.90
5940;DHT22;2995;-31.998;115.906;2023-08-06T00:08:17;6.80;99.90
5940;DHT22;2995;-31.998;115.906;2023-08-06T00:10:49;7.00;99.90
5940;DHT22;2995;-31.998;115.906;2023-08-06T00:13:20;7.10;99.90
5940;DHT22;2995;-31.998;115.906;2023-08-06T00:15:52;7.30;99.90
5940;DHT22;2995;-31.998;115.906;2023-08-06T00:18:25;7.30;99.90
5940;DHT22;2995;-31.998;115.906;2023-08-06T00:20:56;7.70;99.90
5940;DHT22;2995;-31.998;115.906;2023-08-06T00:23:28;7.80;99.90
5940;DHT22;2995;-31.998;115.906;2023-08-06T00:25:59;7.70;99.90
5940;DHT22;2995;-31.998;115.906;2023-08-06T00:28:30;7.80;99.90
5940;DHT22;2995;-31.998;115.906;2023-08-06T00:31:01;7.80;99.90
5940;DHT22;2995;-31.998;115.906;2023-08-06T00:33:34;7.80;99.90
5940;DHT22;2995;-31.998;115.906;2023-08-06T00:36:06;7.90;99.90
5940;DHT22;2995;-31.998;115.906;2023-08-06T00:38:37;8.00;99.90
5940;DHT22;2995;-31.998;115.906;2023-08-06T00:41:08;8.10;99.90
5940;DHT22;2995;-31.998;115.906;2023-08-06T00:43:39;8.20;99.90
5940;DHT22;2995;-31.998;115.906;2023-08-06T00:46:11;8.50;99.90
5940;DHT22;2995;-31.998;115.906;2023-08-06T00:48:44;8.60;99.90
5940;DHT22;2995;-31.998;115.906;2023-08-06T00:51:15;8.60;99.90
5940;DHT22;2995;-31.998;115.906;2023-08-06T00:53:48;8.80;99.90
5940;DHT22;2995;-31.998;115.906;2023-08-06T00:56:20;9.00;99.90
5940;DHT22;2995;-31.998;115.906;2023-08-06T00:58:51;9.00;99.90
5940;DHT22;2995;-31.998;115.906;2023-08-06T01:01:23;9.10;99.90
5940;DHT22;2995;-31.998;115.906;2023-08-06T01:03:57;9.30;99.90
5940;DHT22;2995;-31.998;115.906;2023-08-06T01:06:35;9.30;99.90
5940;DHT22;2995;-31.998;115.906;2023-08-06T01:09:15;9.40;99.90
5940;DHT22;2995;-31.998;115.906;2023-08-06T01:11:57;9.50;99.90
5940;DHT22;2995;-31.998;115.906;2023-08-06T01:14:33;9.60;99.90
5940;DHT22;2995;-31.998;115.906;2023-08-06T01:17:09;9.70;99.90
5940;DHT22;2995;-31.998;115.906;2023-08-06T01:19:42;9.80;99.90
5940;DHT22;2995;-31.998;115.906;2023-08-06T01:22:16;9.90;99.90
5940;DHT22;2995;-31.998;115.906;2023-08-06T01:24:49;10.20;99.90
5940;DHT22;2995;-31.998;115.906;2023-08-06T01:27:26;10.30;99.90
5940;DHT22;2995;-31.998;115.906;2023-08-06T01:30:04;10.60;99.90
5940;DHT22;2995;-31.998;115.906;2023-08-06T01:32:42;10.90;99.90
5940;DHT22;2995;-31.998;115.906;2023-08-06T01:35:15;11.10;99.90
5940;DHT22;2995;-31.998;115.906;2023-08-06T01:37:49;11.20;99.90
5940;DHT22;2995;-31.998;115.906;2023-08-06T01:40:21;11.40;99.90
5940;DHT22;2995;-31.998;115.906;2023-08-06T01:42:53;11.60;99.90
5940;DHT22;2995;-31.998;115.906;2023-08-06T01:45:24;11.80;99.90
5940;DHT22;2995;-31.998;115.906;2023-08-06T01:47:56;11.80;99.90
5940;DHT22;2995;-31.998;115.906;2023-08-06T01:50:27;12.00;99.90
5940;DHT22;2995;-31.998;115.906;2023-08-06T01:53:00;12.10;99.90
5940;DHT22;2995;-31.998;115.906;2023-08-06T01:55:31;12.40;99.90
5940;DHT22;2995;-31.998;115.906;2023-08-06T01:58:02;12.50;99.90
5940;DHT22;2995;-31.998;115.906;2023-08-06T02:00:34;12.60;99.90
5940;DHT22;2995;-31.998;115.906;2023-08-06T02:03:05;12.70;99.90
5940;DHT22;2995;-31.998;115.906;2023-08-06T02:05:36;12.80;99.90
5940;DHT22;2995;-31.998;115.906;2023-08-06T02:08:09;13.10;99.90
5940;DHT22;2995;-31.998;115.906;2023-08-06T02:10:41;13.10;99.90
5940;DHT22;2995;-31.998;115.906;2023-08-06T02:13:12;13.20;99.90
5940;DHT22;2995;-31.998;115.906;2023-08-06T02:15:46;13.60;99.90
5940;DHT22;2995;-31.998;115.906;2023-08-06T02:18:18;13.70;99.90
5940;DHT22;2995;-31.998;115.906;2023-08-06T02:20:56;13.70;99.90
5940;DHT22;2995;-31.998;115.906;2023-08-06T02:23:30;13.90;99.90
5940;DHT22;2995;-31.998;115.906;2023-08-06T02:26:02;14.00;99.90
5940;DHT22;2995;-31.998;115.906;2023-08-06T02:28:34;14.10;99.90
5940;DHT22;2995;-31.998;115.906;2023-08-06T02:31:05;14.30;99.90
5940;DHT22;2995;-31.998;115.906;2023-08-06T02:33:36;14.40;99.90
5940;DHT22;2995;-31.998;115.906;2023-08-06T02:36:11;14.40;99.90
5940;DHT22;2995;-31.998;115.906;2023-08-06T02:38:44;14.50;99.90
5940;DHT22;2995;-31.998;115.906;2023-08-06T02:41:15;14.80;99.90
5940;DHT22;2995;-31.998;115.906;2023-08-06T02:43:48;14.90;99.90
5940;DHT22;2995;-31.998;115.906;2023-08-06T02:46:19;15.00;99.90
5940;DHT22;2995;-31.998;115.906;2023-08-06T02:48:50;15.20;99.90
5940;DHT22;2995;-31.998;115.906;2023-08-06T02:51:22;15.10;99.90
5940;DHT22;2995;-31.998;115.906;2023-08-06T02:53:55;15.40;99.90
5940;DHT22;2995;-31.998;115.906;2023-08-06T02:56:26;15.50;99.90
5940;DHT22;2995;-31.998;115.906;2023-08-06T02:58:57;15.40;99.90
5940;DHT22;2995;-31.998;115.906;2023-08-06T03:01:29;15.50;99.90
5940;DHT22;2995;-31.998;115.906;2023-08-06T03:04:00;15.70;99.90
5940;DHT22;2995;-31.998;115.906;2023-08-06T03:06:31;15.90;99.90
5940;DHT22;2995;-31.998;115.906;2023-08-06T03:09:04;15.80;99.90
5940;DHT22;2995;-31.998;115.906;2023-08-06T03:11:36;15.90;99.90
5940;DHT22;2995;-31.998;115.906;2023-08-06T03:14:07;15.90;99.90
5940;DHT22;2995;-31.998;115.906;2023-08-06T03:16:38;16.00;99.90
5940;DHT22;2995;-31.998;115.906;2023-08-06T03:19:10;16.20;99.90
5940;DHT22;2995;-31.998;115.906;2023-08-06T03:21:41;16.30;99.90
5940;DHT22;2995;-31.998;115.906;2023-08-06T03:24:14;16.50;99.90
5940;DHT22;2995;-31.998;115.906;2023-08-06T03:26:45;16.70;99.90
5940;DHT22;2995;-31.998;115.906;2023-08-06T03:29:17;16.70;99.90
5940;DHT22;2995;-31.998;115.906;2023-08-06T03:31:49;16.80;99.90
5940;DHT22;2995;-31.998;115.906;2023-08-06T03:34:20;16.80;99.90
5940;DHT22;2995;-31.998;115.906;2023-08-06T03:36:51;16.80;99.90
5940;DHT22;2995;-31.998;115.906;2023-08-06T03:39:25;17.10;99.90
5940;DHT22;2995;-31.998;115.906;2023-08-06T03:41:56;17.00;99.90
5940;DHT22;2995;-31.998;115.906;2023-08-06T03:44:27;17.10;99.90
5940;DHT22;2995;-31.998;115.906;2023-08-06T03:46:58;17.40;99.90
5940;DHT22;2995;-31.998;115.906;2023-08-06T03:49:30;17.50;99.90
5940;DHT22;2995;-31.998;115.906;2023-08-06T03:52:01;17.50;99.90
5940;DHT22;2995;-31.998;115.906;2023-08-06T03:54:34;17.50;99.90
5940;DHT22;2995;-31.998;115.906;2023-08-06T03:57:06;17.60;99.90
5940;DHT22;2995;-31.998;115.906;2023-08-06T03:59:37;17.50;99.90
5940;DHT22;2995;-31.998;115.906;2023-08-06T04:02:08;17.70;99.90
5940;DHT22;2995;-31.998;115.906;2023-08-06T04:04:39;17.80;99.90
5940;DHT22;2995;-31.998;115.906;2023-08-06T04:07:11;17.80;99.90
5940;DHT22;2995;-31.998;115.906;2023-08-06T04:09:56;17.80;99.90
5940;DHT22;2995;-31.998;115.906;2023-08-06T04:12:28;17.80;99.90
5940;DHT22;2995;-31.998;115.906;2023-08-06T04:15:00;17.90;99.90
5940;DHT22;2995;-31.998;115.906;2023-08-06T04:17:31;18.10;99.90
5940;DHT22;2995;-31.998;115.906;2023-08-06T04:20:03;18.30;99.90
5940;DHT22;2995;-31.998;115.906;2023-08-06T04:22:34;18.40;99.90
5940;DHT22;2995;-31.998;115.906;2023-08-06T04:25:08;18.50;99.90
5940;DHT22;2995;-31.998;115.906;2023-08-06T04:27:39;18.30;99.90
5940;DHT22;2995;-31.998;115.906;2023-08-06T04:30:12;18.40;99.90
5940;DHT22;2995;-31.998;115.906;2023-08-06T04:32:43;18.50;99.90
5940;DHT22;2995;-31.998;115.906;2023-08-06T04:35:14;18.50;99.90
5940;DHT22;2995;-31.998;115.906;2023-08-06T04:37:45;18.50;99.90
5940;DHT22;2995;-31.998;115.906;2023-08-06T04:40:19;18.50;99.90
5940;DHT22;2995;-31.998;115.906;2023-08-06T04:42:50;18.80;99.90
5940;DHT22;2995;-31.998;115.906;2023-08-06T04:45:22;18.80;99.90
5940;DHT22;2995;-31.998;115.906;2023-08-06T04:47:54;18.80;99.90
5940;DHT22;2995;-31.998;115.906;2023-08-06T04:50:25;18.80;99.90
5940;DHT22;2995;-31.998;115.906;2023-08-06T04:52:56;19.00;99.90
5940;DHT22;2995;-31.998;115.906;2023-08-06T04:55:29;19.10;99.90
5940;DHT22;2995;-31.998;115.906;2023-08-06T04:58:01;19.20;99.90
5940;DHT22;2995;-31.998;115.906;2023-08-06T05:00:32;19.10;99.90
5940;DHT22;2995;-31.998;115.906;2023-08-06T05:03:04;19.20;99.90
5940;DHT22;2995;-31.998;115.906;2023-08-06T05:05:35;19.20;99.90
5940;DHT22;2995;-31.998;115.906;2023-08-06T05:08:07;19.30;99.90
5940;DHT22;2995;-31.998;115.906;2023-08-06T05:10:43;19.30;99.90
5940;DHT22;2995;-31.998;115.906;2023-08-06T05:13:14;19.30;99.90
5940;DHT22;2995;-31.998;115.906;2023-08-06T05:15:46;19.40;99.90
5940;DHT22;2995;-31.998;115.906;2023-08-06T05:18:17;19.60;99.90
5940;DHT22;2995;-31.998;115.906;2023-08-06T05:20:48;19.50;99.90
5940;DHT22;2995;-31.998;115.906;2023-08-06T05:23:19;19.50;99.90
5940;DHT22;2995;-31.998;115.906;2023-08-06T05:25:52;19.60;99.90
5940;DHT22;2995;-31.998;115.906;2023-08-06T05:28:24;19.80;99.90
5940;DHT22;2995;-31.998;115.906;2023-08-06T05:30:55;19.70;99.90
5940;DHT22;2995;-31.998;115.906;2023-08-06T05:33:27;19.80;99.90
5940;DHT22;2995;-31.998;115.906;2023-08-06T05:35:58;19.80;99.90
5940;DHT22;2995;-31.998;115.906;2023-08-06T05:38:31;19.70;99.90
5940;DHT22;2995;-31.998;115.906;2023-08-06T05:41:04;19.70;99.90
5940;DHT22;2995;-31.998;115.906;2023-08-06T05:43:35;19.80;99.90
5940;DHT22;2995;-31.998;115.906;2023-08-06T05:46:06;19.80;99.90
5940;DHT22;2995;-31.998;115.906;2023-08-06T05:48:38;19.90;99.90
5940;DHT22;2995;-31.998;115.906;2023-08-06T05:51:09;20.00;99.90
5940;DHT22;2995;-31.998;115.906;2023-08-06T05:53:41;19.90;99.90
5940;DHT22;2995;-31.998;115.906;2023-08-06T05:56:15;19.90;99.90
5940;DHT22;2995;-31.998;115.906;2023-08-06T05:58:47;19.90;99.90
5940;DHT22;2995;-31.998;115.906;2023-08-06T06:01:21;20.00;99.90
5940;DHT22;2995;-31.998;115.906;2023-08-06T06:03:52;20.00;99.90
5940;DHT22;2995;-31.998;115.906;2023-08-06T06:06:23;19.90;99.90
5940;DHT22;2995;-31.998;115.906;2023-08-06T06:08:55;19.90;99.90
5940;DHT22;2995;-31.998;115.906;2023-08-06T06:11:28;20.10;99.90
5940;DHT22;2995;-31.998;115.906;2023-08-06T06:13:59;20.10;99.90
5940;DHT22;2995;-31.998;115.906;2023-08-06T06:16:30;20.20;99.90
5940;DHT22;2995;-31.998;115.906;2023-08-06T06:19:01;20.20;99.90
5940;DHT22;2995;-31.998;115.906;2023-08-06T06:21:33;20.30;99.90
5940;DHT22;2995;-31.998;115.906;2023-08-06T06:24:04;20.30;99.90
5940;DHT22;2995;-31.998;115.906;2023-08-06T06:26:38;20.20;99.90
5940;DHT22;2995;-31.998;115.906;2023-08-06T06:29:09;20.30;99.90
5940;DHT22;2995;-31.998;115.906;2023-08-06T06:31:40;20.30;99.90
5940;DHT22;2995;-31.998;115.906;2023-08-06T06:34:11;20.40;99.90
5940;DHT22;2995;-31.998;115.906;2023-08-06T06:36:42;20.30;99.90
5940;DHT22;2995;-31.998;115.906;2023-08-06T06:39:15;20.30;99.90
5940;DHT22;2995;-31.998;115.906;2023-08-06T06:41:48;20.40;99.90
5940;DHT22;2995;-31.998;115.906;2023-08-06T06:44:20;20.40;99.90
5940;DHT22;2995;-31.998;115.906;2023-08-06T06:46:51;20.50;99.90
5940;DHT22;2995;-31.998;115.906;2023-08-06T06:49:22;20.40;99.90
5940;DHT22;2995;-31.998;115.906;2023-08-06T06:51:53;20.40;99.90
5940;DHT22;2995;-31.998;115.906;2023-08-06T06:54:25;20.40;99.90
5940;DHT22;2995;-31.998;115.906;2023-08-06T06:56:58;20.50;99.90
5940;DHT22;2995;-31.998;115.906;2023-08-06T06:59:29;20.40;99.90
5940;DHT22;2995;-31.998;115.906;2023-08-06T07:02:01;20.50;99.90
5940;DHT22;2995;-31.998;115.906;2023-08-06T07:04:32;20.40;99.90
5940;DHT22;2995;-31.998;115.906;2023-08-06T07:07:03;20.60;99.90
5940;DHT22;2995;-31.998;115.906;2023-08-06T07:09:34;20.50;99.90
5940;DHT22;2995;-31.998;115.906;2023-08-06T07:12:08;20.60;99.90
5940;DHT22;2995;-31.998;115.906;2023-08-06T07:14:39;20.60;99.90
5940;DHT22;2995;-31.998;115.906;2023-08-06T07:17:11;20.50;99.90
5940;DHT22;2995;-31.998;115.906;2023-08-06T07:19:42;20.50;99.90
5940;DHT22;2995;-31.998;115.906;2023-08-06T07:22:13;20.40;99.90
5940;DHT22;2995;-31.998;115.906;2023-08-06T07:24:44;20.40;99.90
5940;DHT22;2995;-31.998;115.906;2023-08-06T07:27:17;20.30;99.90
5940;DHT22;2995;-31.998;115.906;2023-08-06T07:29:49;20.40;99.90
5940;DHT22;2995;-31.998;115.906;2023-08-06T07:32:20;20.50;99.90
5940;DHT22;2995;-31.998;115.906;2023-08-06T07:34:52;20.60;99.90
5940;DHT22;2995;-31.998;115.906;2023-08-06T07:37:27;20.50;99.90
5940;DHT22;2995;-31.998;115.906;2023-08-06T07:39:59;20.60;99.90
5940;DHT22;2995;-31.998;115.906;2023-08-06T07:42:32;20.70;99.90
5940;DHT22;2995;-31.998;115.906;2023-08-06T07:45:03;20.70;99.90
5940;DHT22;2995;-31.998;115.906;2023-08-06T07:47:35;20.70;99.90
5940;DHT22;2995;-31.998;115.906;2023-08-06T07:50:06;20.70;99.90
5940;DHT22;2995;-31.998;115.906;2023-08-06T07:52:38;20.70;99.90
5940;DHT22;2995;-31.998;115.906;2023-08-06T07:55:09;20.80;99.90
5940;DHT22;2995;-31.998;115.906;2023-08-06T07:57:42;20.80;99.90
5940;DHT22;2995;-31.998;115.906;2023-08-06T08:00:14;20.70;99.90
5940;DHT22;2995;-31.998;115.906;2023-08-06T08:02:45;20.70;99.90
5940;DHT22;2995;-31.998;115.906;2023-08-06T08:05:16;20.70;99.90
5940;DHT22;2995;-31.998;115.906;2023-08-06T08:07:47;20.60;99.90
5940;DHT22;2995;-31.998;115.906;2023-08-06T08:10:19;20.70;99.90
5940;DHT22;2995;-31.998;115.906;2023-08-06T08:12:53;20.80;99.90
5940;DHT22;2995;-31.998;115.906;2023-08-06T08:15:24;20.80;99.90
5940;DHT22;2995;-31.998;115.906;2023-08-06T08:17:56;20.80;99.90
5940;DHT22;2995;-31.998;115.906;2023-08-06T08:20:28;20.80;99.90
5940;DHT22;2995;-31.998;115.906;2023-08-06T08:23:01;20.70;99.90
5940;DHT22;2995;-31.998;115.906;2023-08-06T08:25:32;20.60;99.90
5940;DHT22;2995;-31.998;115.906;2023-08-06T08:28:07;20.60;99.90
5940;DHT22;2995;-31.998;115.906;2023-08-06T08:30:38;20.60;99.90
5940;DHT22;2995;-31.998;115.906;2023-08-06T08:33:11;20.60;99.90
5940;DHT22;2995;-31.998;115.906;2023-08-06T08:35:42;20.60;99.90
5940;DHT22;2995;-31.998;115.906;2023-08-06T08:38:13;20.60;99.90
5940;DHT22;2995;-31.998;115.906;2023-08-06T08:40:48;20.70;99.90
5940;DHT22;2995;-31.998;115.906;2023-08-06T08:43:24;20.70;99.90
5940;DHT22;2995;-31.998;115.906;2023-08-06T08:45:56;20.70;99.90
5940;DHT22;2995;-31.998;115.906;2023-08-06T08:48:29;20.70;99.90
5940;DHT22;2995;-31.998;115.906;2023-08-06T08:51:00;20.70;99.90
5940;DHT22;2995;-31.998;115.906;2023-08-06T08:53:32;20.60;99.90
5940;DHT22;2995;-31.998;115.906;2023-08-06T08:56:06;20.60;99.90
5940;DHT22;2995;-31.998;115.906;2023-08-06T08:58:39;20.50;99.90
5940;DHT22;2995;-31.998;115.906;2023-08-06T09:01:11;20.50;99.90
5940;DHT22;2995;-31.998;115.906;2023-08-06T09:03:42;20.40;99.90
5940;DHT22;2995;-31.998;115.906;2023-08-06T09:06:15;20.50;99.90
5940;DHT22;2995;-31.998;115.906;2023-08-06T09:08:50;20.50;99.90
5940;DHT22;2995;-31.998;115.906;2023-08-06T09:11:22;20.50;99.90
5940;DHT22;2995;-31.998;115.906;2023-08-06T09:13:57;20.20;99.90
5940;DHT22;2995;-31.998;115.906;2023-08-06T09:16:30;19.90;99.90
5940;DHT22;2995;-31.998;115.906;2023-08-06T09:19:08;19.70;99.90
5940;DHT22;2995;-31.998;115.906;2023-08-06T09:21:40;19.60;99.90
5940;DHT22;2995;-31.998;115.906;2023-08-06T09:24:12;19.40;99.90
5940;DHT22;2995;-31.998;115.906;2023-08-06T09:26:44;19.40;99.90
5940;DHT22;2995;-31.998;115.906;2023-08-06T09:29:18;19.20;99.90
5940;DHT22;2995;-31.998;115.906;2023-08-06T09:31:50;19.20;99.90
5940;DHT22;2995;-31.998;115.906;2023-08-06T09:34:22;19.10;99.90
5940;DHT22;2995;-31.998;115.906;2023-08-06T09:36:54;18.90;99.90
5940;DHT22;2995;-31.998;115.906;2023-08-06T09:39:28;18.80;99.90
5940;DHT22;2995;-31.998;115.906;2023-08-06T09:42:01;18.70;99.90
5940;DHT22;2995;-31.998;115.906;2023-08-06T09:44:35;18.70;99.90
5940;DHT22;2995;-31.998;115.906;2023-08-06T09:47:07;18.60;99.90
5940;DHT22;2995;-31.998;115.906;2023-08-06T09:49:44;18.40;99.90
5940;DHT22;2995;-31.998;115.906;2023-08-06T09:52:16;18.30;99.90
5940;DHT22;2995;-31.998;115.906;2023-08-06T09:54:48;18.20;99.90
5940;DHT22;2995;-31.998;115.906;2023-08-06T09:57:20;18.10;99.90
5940;DHT22;2995;-31.998;115.906;2023-08-06T09:59:54;18.10;99.90
5940;DHT22;2995;-31.998;115.906;2023-08-06T10:02:26;18.00;99.90
5940;DHT22;2995;-31.998;115.906;2023-08-06T10:04:58;17.90;99.90
5940;DHT22;2995;-31.998;115.906;2023-08-06T10:07:31;17.80;99.90
5940;DHT22;2995;-31.998;115.906;2023-08-06T10:10:03;17.80;99.90
5940;DHT22;2995;-31.998;115.906;2023-08-06T10:12:37;17.70;99.90
5940;DHT22;2995;-31.998;115.906;2023-08-06T10:15:12;17.70;99.90
5940;DHT22;2995;-31.998;115.906;2023-08-06T10:17:45;17.70;99.90
5940;DHT22;2995;-31.998;115.906;2023-08-06T10:20:18;17.60;99.90
5940;DHT22;2995;-31.998;115.906;2023-08-06T10:23:02;17.70;99.90
5940;DHT22;2995;-31.998;115.906;2023-08-06T10:25:34;17.50;99.90
5940;DHT22;2995;-31.998;115.906;2023-08-06T10:28:09;17.50;99.90
5940;DHT22;2995;-31.998;115.906;2023-08-06T10:30:47;17.40;99.90
5940;DHT22;2995;-31.998;115.906;2023-08-06T10:33:20;17.40;99.90
5940;DHT22;2995;-31.998;115.906;2023-08-06T10:35:52;17.30;99.90
5940;DHT22;2995;-31.998;115.906;2023-08-06T10:38:35;17.20;99.90
5940;DHT22;2995;-31.998;115.906;2023-08-06T10:41:23;17.20;99.90
5940;DHT22;2995;-31.998;115.906;2023-08-06T10:44:06;17.10;99.90
5940;DHT22;2995;-31.998;115.906;2023-08-06T10:46:40;17.00;99.90
5940;DHT22;2995;-31.998;115.906;2023-08-06T10:49:12;16.90;99.90
5940;DHT22;2995;-31.998;115.906;2023-08-06T10:51:45;16.90;99.90
5940;DHT22;2995;-31.998;115.906;2023-08-06T10:54:17;16.80;99.90
5940;DHT22;2995;-31.998;115.906;2023-08-06T10:56:48;16.70;99.90
5940;DHT22;2995;-31.998;115.906;2023-08-06T10:59:20;16.60;99.90
5940;DHT22;2995;-31.998;115.906;2023-08-06T11:01:53;16.60;99.90
5940;DHT22;2995;-31.998;115.906;2023-08-06T11:04:24;16.50;99.90
5940;DHT22;2995;-31.998;115.906;2023-08-06T11:06:56;16.50;99.90
5940;DHT22;2995;-31.998;115.906;2023-08-06T11:09:27;16.50;99.90
5940;DHT22;2995;-31.998;115.906;2023-08-06T11:11:59;16.40;99.90
5940;DHT22;2995;-31.998;115.906;2023-08-06T11:14:32;16.40;99.90
5940;DHT22;2995;-31.998;115.906;2023-08-06T11:17:06;16.30;99.90
5940;DHT22;2995;-31.998;115.906;2023-08-06T11:19:37;16.30;99.90
5940;DHT22;2995;-31.998;115.906;2023-08-06T11:22:08;16.10;99.90
5940;DHT22;2995;-31.998;115.906;2023-08-06T11:24:39;16.10;99.90
5940;DHT22;2995;-31.998;115.906;2023-08-06T11:27:14;16.10;99.90
5940;DHT22;2995;-31.998;115.906;2023-08-06T11:29:45;16.10;99.90
5940;DHT22;2995;-31.998;115.906;2023-08-06T11:32:19;16.00;99.90
5940;DHT22;2995;-31.998;115.906;2023-08-06T11:34:50;16.00;99.90
5940;DHT22;2995;-31.998;115.906;2023-08-06T11:37:23;15.90;99.90
5940;DHT22;2995;-31.998;115.906;2023-08-06T11:39:55;15.90;99.90
5940;DHT22;2995;-31.998;115.906;2023-08-06T11:42:32;15.90;99.90
5940;DHT22;2995;-31.998;115.906;2023-08-06T11:45:04;15.90;99.90
5940;DHT22;2995;-31.998;115.906;2023-08-06T11:47:41;15.80;99.90
5940;DHT22;2995;-31.998;115.906;2023-08-06T11:50:29;15.80;99.90
5940;DHT22;2995;-31.998;115.906;2023-08-06T11:53:02;15.70;99.90
5940;DHT22;2995;-31.998;115.906;2023-08-06T11:55:33;15.70;99.90
5940;DHT22;2995;-31.998;115.906;2023-08-06T11:58:05;15.70;99.90
5940;DHT22;2995;-31.998;115.906;2023-08-06T12:00:37;15.60;99.90
5940;DHT22;2995;-31.998;115.906;2023-08-06T12:03:11;15.60;99.90
5940;DHT22;2995;-31.998;115.906;2023-08-06T12:05:42;15.50;99.90
5940;DHT22;2995;-31.998;115.906;2023-08-06T12:08:16;15.50;99.90
5940;DHT22;2995;-31.998;115.906;2023-08-06T12:10:48;15.40;99.90
5940;DHT22;2995;-31.998;115.906;2023-08-06T12:13:19;15.40;99.90
5940;DHT22;2995;-31.998;115.906;2023-08-06T12:15:50;15.30;99.90
5940;DHT22;2995;-31.998;115.906;2023-08-06T12:18:24;15.30;99.90
5940;DHT22;2995;-31.998;115.906;2023-08-06T12:20:55;15.30;99.90
5940;DHT22;2995;-31.998;115.906;2023-08-06T12:23:26;15.20;99.90
5940;DHT22;2995;-31.998;115.906;2023-08-06T12:26:00;15.20;99.90
5940;DHT22;2995;-31.998;115.906;2023-08-06T12:28:31;15.10;99.90
5940;DHT22;2995;-31.998;115.906;2023-08-06T12:31:02;15.10;99.90
5940;DHT22;2995;-31.998;115.906;2023-08-06T12:33:35;15.00;99.90
5940;DHT22;2995;-31.998;115.906;2023-08-06T12:36:06;15.00;99.90
5940;DHT22;2995;-31.998;115.906;2023-08-06T12:38:38;15.00;99.90
5940;DHT22;2995;-31.998;115.906;2023-08-06T12:41:09;14.90;99.90
5940;DHT22;2995;-31.998;115.906;2023-08-06T12:43:40;14.90;99.90
5940;DHT22;2995;-31.998;115.906;2023-08-06T12:46:11;14.80;99.90
5940;DHT22;2995;-31.998;115.906;2023-08-06T12:48:44;14.80;99.90
5940;DHT22;2995;-31.998;115.906;2023-08-06T12:51:16;14.80;99.90
5940;DHT22;2995;-31.998;115.906;2023-08-06T12:53:47;14.70;99.90
5940;DHT22;2995;-31.998;115.906;2023-08-06T12:56:19;14.70;99.90
5940;DHT22;2995;-31.998;115.906;2023-08-06T12:58:50;14.70;99.90
5940;DHT22;2995;-31.998;115.906;2023-08-06T13:01:21;14.60;99.90
5940;DHT22;2995;-31.998;115.906;2023-08-06T13:03:54;14.60;99.90
5940;DHT22;2995;-31.998;115.906;2023-08-06T13:06:25;14.60;99.90
5940;DHT22;2995;-31.998;115.906;2023-08-06T13:08:57;14.60;99.90
5940;DHT22;2995;-31.998;115.906;2023-08-06T13:11:28;14.60;99.90
5940;DHT22;2995;-31.998;115.906;2023-08-06T13:14:05;14.60;99.90
5940;DHT22;2995;-31.998;115.906;2023-08-06T13:16:38;14.50;99.90
5940;DHT22;2995;-31.998;115.906;2023-08-06T13:19:11;14.50;99.90
5940;DHT22;2995;-31.998;115.906;2023-08-06T13:22:00;14.40;99.90
5940;DHT22;2995;-31.998;115.906;2023-08-06T13:24:34;14.30;99.90
5940;DHT22;2995;-31.998;115.906;2023-08-06T13:27:05;14.30;99.90
5940;DHT22;2995;-31.998;115.906;2023-08-06T13:29:37;14.20;99.90
5940;DHT22;2995;-31.998;115.906;2023-08-06T13:32:08;14.20;99.90
5940;DHT22;2995;-31.998;115.906;2023-08-06T13:34:42;14.20;99.90
5940;DHT22;2995;-31.998;115.906;2023-08-06T13:37:13;14.20;99.90
5940;DHT22;2995;-31.998;115.906;2023-08-06T13:39:44;14.20;99.90
5940;DHT22;2995;-31.998;115.906;2023-08-06T13:42:15;14.20;99.90
5940;DHT22;2995;-31.998;115.906;2023-08-06T13:44:46;14.20;99.90
5940;DHT22;2995;-31.998;115.906;2023-08-06T13:47:18;14.10;99.90
5940;DHT22;2995;-31.998;115.906;2023-08-06T13:49:51;14.10;99.90
5940;DHT22;2995;-31.998;115.906;2023-08-06T13:52:22;14.00;99.90
5940;DHT22;2995;-31.998;115.906;2023-08-06T13:54:54;14.00;99.90
5940;DHT22;2995;-31.998;115.906;2023-08-06T13:57:25;14.00;99.90
5940;DHT22;2995;-31.998;115.906;2023-08-06T13:59:56;14.00;99.90
5940;DHT22;2995;-31.998;115.906;2023-08-06T14:02:27;14.00;99.90
5940;DHT22;2995;-31.998;115.906;2023-08-06T14:05:01;13.90;99.90
5940;DHT22;2995;-31.998;115.906;2023-08-06T14:07:32;13.90;99.90
5940;DHT22;2995;-31.998;115.906;2023-08-06T14:10:04;13.80;99.90
5940;DHT22;2995;-31.998;115.906;2023-08-06T14:12:35;13.90;99.90
5940;DHT22;2995;-31.998;115.906;2023-08-06T14:15:07;13.80;99.90
5940;DHT22;2995;-31.998;115.906;2023-08-06T14:17:38;13.80;99.90
5940;DHT22;2995;-31.998;115.906;2023-08-06T14:20:12;13.80;99.90
5940;DHT22;2995;-31.998;115.906;2023-08-06T14:22:43;13.70;99.90
5940;DHT22;2995;-31.998;115.906;2023-08-06T14:25:14;13.70;99.90
5940;DHT22;2995;-31.998;115.906;2023-08-06T14:27:45;13.70;99.90
5940;DHT22;2995;-31.998;115.906;2023-08-06T14:30:16;13.70;99.90
5940;DHT22;2995;-31.998;115.906;2023-08-06T14:32:48;13.70;99.90
5940;DHT22;2995;-31.998;115.906;2023-08-06T14:35:21;13.60;99.90
5940;DHT22;2995;-31.998;115.906;2023-08-06T14:37:53;13.60;99.90
5940;DHT22;2995;-31.998;115.906;2023-08-06T14:40:24;13.50;99.90
5940;DHT22;2995;-31.998;115.906;2023-08-06T14:43:01;13.40;99.90
5940;DHT22;2995;-31.998;115.906;2023-08-06T14:45:33;13.40;99.90
5940;DHT22;2995;-31.998;115.906;2023-08-06T14:48:04;13.50;99.90
5940;DHT22;2995;-31.998;115.906;2023-08-06T14:50:37;13.40;99.90
5940;DHT22;2995;-31.998;115.906;2023-08-06T14:53:09;13.50;99.90
5940;DHT22;2995;-31.998;115.906;2023-08-06T14:55:41;13.40;99.90
5940;DHT22;2995;-31.998;115.906;2023-08-06T14:58:12;13.40;99.90
5940;DHT22;2995;-31.998;115.906;2023-08-06T15:00:44;13.40;99.90
5940;DHT22;2995;-31.998;115.906;2023-08-06T15:03:15;13.30;99.90
5940;DHT22;2995;-31.998;115.906;2023-08-06T15:05:50;13.30;99.90
5940;DHT22;2995;-31.998;115.906;2023-08-06T15:08:21;13.30;99.90
5940;DHT22;2995;-31.998;115.906;2023-08-06T15:10:53;13.30;99.90
5940;DHT22;2995;-31.998;115.906;2023-08-06T15:13:24;13.20;99.90
5940;DHT22;2995;-31.998;115.906;2023-08-06T15:15:55;13.20;99.90
5940;DHT22;2995;-31.998;115.906;2023-08-06T15:18:26;13.10;99.90
5940;DHT22;2995;-31.998;115.906;2023-08-06T15:21:00;13.10;99.90
5940;DHT22;2995;-31.998;115.906;2023-08-06T15:23:31;13.00;99.90
5940;DHT22;2995;-31.998;115.906;2023-08-06T15:26:02;13.00;99.90
5940;DHT22;2995;-31.998;115.906;2023-08-06T15:28:34;13.00;99.90
5940;DHT22;2995;-31.998;115.906;2023-08-06T15:31:05;13.00;99.90
5940;DHT22;2995;-31.998;115.906;2023-08-06T15:33:36;12.90;99.90
5940;DHT22;2995;-31.998;115.906;2023-08-06T15:36:10;12.90;99.90
5940;DHT22;2995;-31.998;115.906;2023-08-06T15:38:41;12.90;99.90
5940;DHT22;2995;-31.998;115.906;2023-08-06T15:41:12;12.90;99.90
5940;DHT22;2995;-31.998;115.906;2023-08-06T15:43:44;12.80;99.90
5940;DHT22;2995;-31.998;115.906;2023-08-06T15:46:15;12.80;99.90
5940;DHT22;2995;-31.998;115.906;2023-08-06T15:48:46;12.60;99.90